As Sib, Oman
Current Conditions -  °F | °C
As of 4:50 PM on Sunday 21 Dec 2014 (Local Time) from OOMS Reporting Station
Clear Clear  
Wind Chill: 75°   Ceiling: Unl
Heat Index: 75°   Visibility: 5mi
Dew Point: 64°   Wind: 7mph
Humidity: 69%   Direction: 50°NE
Pressure: 29.91"   Gusts: NA
Location:  23.67°N, 58.19°E
Report Text: OOMS 211250Z 05006KT 8000 NSC 24/18 Q1013 NOSIG
Loading
Personal Weather Stations






























Interactive Weather Map New forecast layout! Learn more

10-Day Weather Forecast

Advertisements
Track Severe Weather on mobile